Time;durP1;ratioP1;P1;durP2;ratioP2;P2;SDS_P1;SDS_P2;PMS_P1;PMS_P2;Temp;Humidity;BMP_temperature;BMP_pressure;BME280_temperature;BME280_humidity;BME280_pressure;Samples;Min_cycle;Max_cycle;Signal;HPM_P1;HPM_P2
2022/09/15 00:02:22;;;;;;;11.23;4.43;;;;;;;12.70;100.00;100005.19;7387761;19;20790;-57
2022/09/15 00:04:51;;;;;;;14.53;6.40;;;;;;;12.61;100.00;100010.19;7390188;19;20423;-56
2022/09/15 00:07:21;;;;;;;45.47;19.40;;;;;;;12.49;100.00;100011.66;7387469;19;20465;-53
2022/09/15 00:09:50;;;;;;;7.53;2.37;;;;;;;12.38;100.00;99997.63;7391907;19;20413;-52
2022/09/15 00:12:20;;;;;;;27.43;12.80;;;;;;;12.20;100.00;100000.69;7386929;19;20469;-58
2022/09/15 00:14:49;;;;;;;10.30;3.20;;;;;;;12.19;100.00;99994.63;7393161;19;20430;-52
2022/09/15 00:17:21;;;;;;;9.03;3.20;;;;;;;12.14;100.00;99998.81;7386060;19;20448;-52
2022/09/15 00:19:51;;;;;;;14.97;6.90;;;;;;;12.12;100.00;99984.97;7391748;19;20385;-49
2022/09/15 00:22:21;;;;;;;5.90;3.00;;;;;;;11.94;100.00;99970.75;7386995;19;20410;-59
2022/09/15 00:24:51;;;;;;;6.83;2.80;;;;;;;11.95;100.00;99938.88;7389235;19;20971;-54
2022/09/15 00:27:20;;;;;;;8.13;4.07;;;;;;;11.91;100.00;99923.28;7389038;19;20432;-56
2022/09/15 00:29:49;;;;;;;4.33;2.63;;;;;;;11.89;100.00;99907.72;7398821;19;20438;-54
2022/09/15 00:32:21;;;;;;;11.00;4.73;;;;;;;11.91;100.00;99898.31;7392247;19;20444;-61
2022/09/15 00:34:52;;;;;;;11.57;3.00;;;;;;;11.83;100.00;99889.50;7396492;19;20425;-58
2022/09/15 00:37:22;;;;;;;10.90;4.60;;;;;;;11.79;100.00;99880.78;7393246;19;20431;-60
2022/09/15 00:39:51;;;;;;;7.70;3.20;;;;;;;11.82;100.00;99873.13;7402837;19;20400;-58
2022/09/15 00:42:22;;;;;;;13.93;7.50;;;;;;;11.84;100.00;99876.59;7392924;19;20422;-59
2022/09/15 00:44:57;;;;;;;17.70;8.67;;;;;;;11.84;100.00;99880.91;7396508;19;20414;-52
2022/09/15 00:47:31;;;;;;;11.50;3.40;;;;;;;11.80;100.00;99873.94;7392291;19;20413;-55
2022/09/15 00:50:05;;;;;;;9.37;4.17;;;;;;;11.81;100.00;99878.25;7398668;19;20391;-60
2022/09/15 00:52:38;;;;;;;12.73;3.50;;;;;;;11.78;100.00;99880.78;7393376;19;20427;-56
2022/09/15 00:55:10;;;;;;;10.80;3.67;;;;;;;11.75;100.00;99872.09;7396099;19;20716;-55
2022/09/15 00:57:48;;;;;;;8.97;3.90;;;;;;;11.80;100.00;99873.94;7394342;19;20479;-60
2022/09/15 01:00:21;;;;;;;17.37;4.80;;;;;;;11.75;100.00;99882.44;7398155;19;20414;-57
2022/09/15 01:02:53;;;;;;;12.20;6.03;;;;;;;11.78;100.00;99885.94;7393049;19;20414;-59
2022/09/15 01:05:25;;;;;;;9.80;4.63;;;;;;;11.78;100.00;99880.78;7399235;19;20790;-55
2022/09/15 01:07:58;;;;;;;11.07;4.40;;;;;;;11.78;100.00;99881.63;7393143;19;20997;-58
2022/09/15 01:10:29;;;;;;;7.30;4.50;;;;;;;11.79;100.00;99892.84;7397858;19;20392;-57
2022/09/15 01:13:00;;;;;;;8.67;4.27;;;;;;;11.80;100.00;99898.03;7392581;19;20473;-55
2022/09/15 01:15:36;;;;;;;5.87;3.97;;;;;;;11.77;100.00;99899.69;7394275;19;20435;-60
2022/09/15 01:18:15;;;;;;;6.90;3.23;;;;;;;11.78;100.00;99898.88;7391536;19;20436;-61
2022/09/15 01:21:03;;;;;;;9.93;5.13;;;;;;;11.77;100.00;99894.50;7401974;19;20380;-53
2022/09/15 01:24:10;;;;;;;10.40;4.87;;;;;;;11.83;100.00;99894.66;7394911;19;20414;-56
2022/09/15 01:26:53;;;;;;;6.50;4.37;;;;;;;11.84;100.00;99897.28;7391905;19;20426;-57
2022/09/15 01:29:52;;;;;;;6.50;3.93;;;;;;;11.85;100.00;99893.00;7396881;19;20391;-54
2022/09/15 01:35:16;;;;;;;9.03;4.20;;;;;;;11.83;100.00;99889.50;7395061;19;20943;-56
2022/09/15 01:37:48;;;;;;;7.37;4.60;;;;;;;11.83;100.00;99892.06;7390951;19;20442;-54
2022/09/15 01:40:19;;;;;;;10.03;4.43;;;;;;;11.82;100.00;99888.63;7396593;19;20416;-53
2022/09/15 01:42:50;;;;;;;11.13;4.57;;;;;;;11.83;100.00;99900.72;7391944;19;20435;-58
2022/09/15 01:45:25;;;;;;;8.80;4.33;;;;;;;11.80;100.00;99885.13;7393747;19;20451;-58
2022/09/15 01:47:56;;;;;;;5.90;4.17;;;;;;;11.83;100.00;99894.66;7390028;19;20422;-55
2022/09/15 01:50:30;;;;;;;7.30;4.27;;;;;;;11.84;100.00;99888.69;7396530;19;20384;-57
2022/09/15 01:53:02;;;;;;;6.80;4.47;;;;;;;11.85;100.00;99883.50;7391704;19;20420;-56
2022/09/15 01:55:39;;;;;;;10.57;5.07;;;;;;;11.87;100.00;99880.97;7393415;19;21362;-56
2022/09/15 01:58:09;;;;;;;9.73;3.90;;;;;;;11.85;100.00;99878.34;7391095;19;20445;-55
2022/09/15 02:00:44;;;;;;;6.57;4.17;;;;;;;11.86;100.00;99889.56;7395129;19;20388;-61
2022/09/15 02:03:18;;;;;;;6.93;4.10;;;;;;;11.86;100.00;99880.09;7389854;19;20520;-56
2022/09/15 02:05:51;;;;;;;11.40;3.30;;;;;;;11.90;100.00;99873.31;7395939;19;20803;-60
2022/09/15 02:08:27;;;;;;;11.93;4.00;;;;;;;11.92;100.00;99874.19;7389464;19;20416;-54
2022/09/15 02:11:02;;;;;;;9.00;5.03;;;;;;;12.02;100.00;99883.88;7396117;19;20397;-55
2022/09/15 02:13:39;;;;;;;8.90;3.90;;;;;;;12.03;100.00;99879.59;7389640;19;20443;-55
2022/09/15 02:16:18;;;;;;;7.40;3.60;;;;;;;12.09;100.00;99886.63;7391512;19;20393;-54
2022/09/15 02:19:13;;;;;;;11.43;4.60;;;;;;;12.14;100.00;99893.66;7394339;19;20408;-55
2022/09/15 02:21:56;;;;;;;18.37;4.10;;;;;;;12.17;100.00;99900.63;7389223;19;20420;-56
2022/09/15 02:24:31;;;;;;;7.33;3.73;;;;;;;12.13;100.00;99909.16;7393847;19;20411;-56
2022/09/15 02:27:01;;;;;;;8.37;3.60;;;;;;;12.18;100.00;99925.63;7390302;19;20456;-58
2022/09/15 02:29:32;;;;;;;7.23;3.80;;;;;;;12.05;100.00;99926.22;7395090;19;20389;-58
2022/09/15 02:32:05;;;;;;;9.10;5.10;;;;;;;11.99;100.00;99935.53;7391292;19;20455;-56
2022/09/15 02:34:38;;;;;;;11.73;5.20;;;;;;;12.11;100.00;99931.53;7393570;19;20435;-57
2022/09/15 02:37:08;;;;;;;9.90;3.90;;;;;;;11.98;100.00;99936.38;7390708;19;20414;-55
2022/09/15 02:39:41;;;;;;;8.83;4.00;;;;;;;11.95;100.00;99944.06;7393339;19;20410;-49
2022/09/15 02:42:11;;;;;;;6.27;4.03;;;;;;;11.94;100.00;99919.03;7389915;19;20411;-57
2022/09/15 02:44:41;;;;;;;6.97;4.03;;;;;;;11.93;100.00;99927.63;7393069;19;20412;-56
2022/09/15 02:47:13;;;;;;;7.83;4.20;;;;;;;11.96;100.00;99935.47;7389469;19;20412;-56
2022/09/15 02:49:42;;;;;;;9.90;3.60;;;;;;;11.93;100.00;99929.34;7392852;19;20388;-53
2022/09/15 02:52:11;;;;;;;7.73;3.60;;;;;;;11.91;100.00;99934.50;7390150;19;20431;-57
2022/09/15 02:54:41;;;;;;;8.40;4.07;;;;;;;11.88;100.00;99934.41;7392750;19;20415;-60
2022/09/15 02:57:10;;;;;;;9.10;4.77;;;;;;;11.88;100.00;99930.13;7389831;19;20442;-58
2022/09/15 03:02:24;;;;;;;11.70;4.10;;;;;;;11.89;100.00;99933.56;7389401;19;20408;-54
2022/09/15 03:04:54;;;;;;;7.10;3.80;;;;;;;11.91;100.00;99929.31;7392406;19;20950;-57
2022/09/15 03:07:23;;;;;;;10.00;4.20;;;;;;;11.91;100.00;99928.44;7388707;19;21077;-55
2022/09/15 03:09:53;;;;;;;9.10;3.97;;;;;;;11.93;100.00;99927.63;7393872;19;20753;-52
2022/09/15 03:12:23;;;;;;;6.70;3.70;;;;;;;11.91;100.00;99926.75;7388865;19;20441;-58
2022/09/15 03:14:52;;;;;;;6.47;3.80;;;;;;;11.92;100.00;99919.84;7392019;19;20919;-57
2022/09/15 03:17:24;;;;;;;12.87;3.83;;;;;;;11.89;100.00;99920.63;7388930;19;20443;-58
2022/09/15 03:19:54;;;;;;;7.23;4.13;;;;;;;11.89;100.00;99921.53;7392404;19;21356;-50
2022/09/15 03:22:23;;;;;;;8.83;4.20;;;;;;;11.90;100.00;99922.41;7388522;19;20412;-53
2022/09/15 03:24:52;;;;;;;7.73;3.80;;;;;;;11.93;100.00;99927.63;7393055;19;20454;-52
2022/09/15 03:27:22;;;;;;;10.10;4.33;;;;;;;12.20;100.00;99931.72;7388245;19;20408;-57
2022/09/15 03:29:51;;;;;;;6.60;3.90;;;;;;;12.13;100.00;99927.25;7392986;19;20408;-58
2022/09/15 03:32:21;;;;;;;8.87;3.77;;;;;;;12.01;100.00;99918.34;7388613;19;20418;-57
2022/09/15 03:34:53;;;;;;;8.70;4.03;;;;;;;12.00;100.00;99929.53;7391504;19;20419;-57
2022/09/15 03:37:27;;;;;;;9.07;4.30;;;;;;;12.01;100.00;99931.25;7388001;19;20421;-57
2022/09/15 03:39:56;;;;;;;8.70;3.43;;;;;;;11.94;100.00;99934.56;7391828;19;20384;-57
2022/09/15 03:42:26;;;;;;;8.13;2.87;;;;;;;11.85;100.00;99930.03;7388145;19;20410;-54
2022/09/15 03:44:56;;;;;;;7.50;3.33;;;;;;;11.83;100.00;99923.09;7391378;19;20420;-58
2022/09/15 03:47:25;;;;;;;6.10;3.33;;;;;;;11.81;100.00;99919.59;7388176;19;20446;-54
2022/09/15 03:49:57;;;;;;;5.70;2.83;;;;;;;11.80;100.00;99921.31;7392702;19;20910;-53
2022/09/15 03:52:27;;;;;;;8.83;3.30;;;;;;;11.83;100.00;99918.81;7388285;19;20955;-56
2022/09/15 03:54:56;;;;;;;17.00;2.90;;;;;;;11.86;100.00;99925.75;7390907;19;20409;-55
2022/09/15 03:57:26;;;;;;;10.50;3.10;;;;;;;11.79;100.00;99918.69;7388424;19;20764;-55
2022/09/15 03:59:55;;;;;;;16.07;3.40;;;;;;;11.78;100.00;99917.81;7391072;19;20401;-52
2022/09/15 04:02:24;;;;;;;9.63;3.20;;;;;;;11.78;100.00;99916.97;7393809;19;20427;-55
2022/09/15 04:04:57;;;;;;;11.43;2.97;;;;;;;11.78;100.00;99927.28;7397521;19;20419;-55
2022/09/15 04:07:26;;;;;;;7.57;3.13;;;;;;;11.72;100.00;99918.56;7394904;19;20440;-60
2022/09/15 04:09:56;;;;;;;8.33;2.93;;;;;;;11.75;100.00;99923.78;7399614;19;20397;-59
2022/09/15 04:12:25;;;;;;;6.87;2.80;;;;;;;11.73;100.00;99920.31;7394820;19;20417;-55
2022/09/15 04:14:55;;;;;;;8.83;2.93;;;;;;;11.71;100.00;99921.09;7397292;19;20801;-55
2022/09/15 04:17:24;;;;;;;11.33;3.00;;;;;;;11.72;100.00;99912.50;7394363;19;20403;-54
2022/09/15 04:19:57;;;;;;;7.17;2.40;;;;;;;11.70;100.00;99919.34;7397718;19;20910;-55
2022/09/15 04:22:26;;;;;;;8.47;2.90;;;;;;;11.68;100.00;99906.38;7395039;19;20413;-48
2022/09/15 04:24:55;;;;;;;12.53;3.40;;;;;;;11.73;100.00;99911.66;7396366;19;20425;-57
2022/09/15 04:27:25;;;;;;;7.00;2.70;;;;;;;11.70;100.00;99909.03;7394555;19;20408;-56
2022/09/15 04:29:54;;;;;;;6.50;2.47;;;;;;;11.70;100.00;99904.72;7398862;19;20387;-55
2022/09/15 04:32:24;;;;;;;8.87;3.03;;;;;;;11.68;100.00;99900.34;7395576;19;20407;-55
2022/09/15 04:34:53;;;;;;;9.80;3.30;;;;;;;11.71;100.00;99903.91;7396577;19;20413;-57
2022/09/15 04:37:25;;;;;;;10.87;3.17;;;;;;;11.74;100.00;99901.38;7394516;19;20416;-55
2022/09/15 04:39:55;;;;;;;4.27;2.93;;;;;;;11.74;100.00;99910.81;7397378;19;20392;-55
2022/09/15 04:42:25;;;;;;;10.80;3.07;;;;;;;11.71;100.00;99918.50;7394300;19;20415;-52
2022/09/15 04:44:54;;;;;;;10.93;2.90;;;;;;;11.72;100.00;99908.22;7396275;19;20413;-53
2022/09/15 04:47:23;;;;;;;9.93;2.60;;;;;;;11.72;100.00;99908.22;7393239;19;20420;-55
2022/09/15 04:49:53;;;;;;;11.33;3.10;;;;;;;11.74;100.00;99913.41;7398173;19;20415;-58
2022/09/15 04:52:25;;;;;;;7.57;3.00;;;;;;;11.72;100.00;99910.81;7393222;19;20993;-56
2022/09/15 04:54:54;;;;;;;6.97;2.43;;;;;;;11.74;100.00;99916.88;7396170;19;20458;-57
2022/09/15 04:57:24;;;;;;;17.80;3.50;;;;;;;11.70;100.00;99915.03;7395467;19;20784;-53
2022/09/15 04:59:53;;;;;;;5.07;2.47;;;;;;;11.72;100.00;99912.50;7396840;19;20400;-53
2022/09/15 05:02:22;;;;;;;5.37;2.13;;;;;;;11.68;100.00;99911.56;7393558;19;20432;-53
2022/09/15 05:04:52;;;;;;;8.17;2.60;;;;;;;11.67;100.00;99914.97;7395771;19;20453;-56
2022/09/15 05:07:21;;;;;;;3.70;2.00;;;;;;;11.71;100.00;99915.94;7393187;19;20447;-52
2022/09/15 05:09:54;;;;;;;10.90;3.47;;;;;;;11.71;100.00;99914.22;7397174;19;20479;-60
2022/09/15 05:12:23;;;;;;;6.20;1.70;;;;;;;11.66;100.00;99922.69;7391871;19;20949;-58
2022/09/15 05:14:53;;;;;;;7.37;2.23;;;;;;;11.70;100.00;99922.78;7395264;19;20407;-57
2022/09/15 05:17:22;;;;;;;7.30;2.30;;;;;;;11.71;100.00;99921.09;7393412;19;20416;-59
2022/09/15 05:19:55;;;;;;;5.93;2.50;;;;;;;11.71;100.00;99923.69;7396405;19;20399;-56
2022/09/15 05:22:24;;;;;;;9.53;1.87;;;;;;;11.68;100.00;99927.06;7393865;19;20412;-55
2022/09/15 05:24:56;;;;;;;5.27;2.47;;;;;;;11.70;100.00;99930.53;7394732;19;20420;-58
2022/09/15 05:27:25;;;;;;;6.87;1.83;;;;;;;11.73;100.00;99932.34;7390620;19;20432;-58
2022/09/15 05:29:55;;;;;;;12.47;1.97;;;;;;;11.71;100.00;99942.66;7396881;19;20399;-57
2022/09/15 05:32:44;;;;;;;9.60;2.07;;;;;;;11.74;100.00;99940.13;7392381;19;20480;-58
2022/09/15 05:35:14;;;;;;;11.10;2.60;;;;;;;11.73;100.00;99947.84;7394751;19;20421;-58
2022/09/15 05:37:43;;;;;;;14.57;2.73;;;;;;;11.79;100.00;99960.06;7391112;19;20422;-59
2022/09/15 05:40:15;;;;;;;6.80;2.67;;;;;;;11.76;100.00;99968.59;7396113;19;20399;-53
2022/09/15 05:42:45;;;;;;;10.93;2.00;;;;;;;11.78;100.00;99966.91;7391697;19;20930;-52
2022/09/15 05:45:14;;;;;;;6.30;2.20;;;;;;;11.83;100.00;99974.78;7394414;19;20420;-54
2022/09/15 05:47:43;;;;;;;7.17;2.10;;;;;;;11.72;100.00;99977.09;7390629;19;20407;-52
2022/09/15 05:50:13;;;;;;;9.53;1.60;;;;;;;11.74;100.00;99976.31;7396564;19;20407;-57
2022/09/15 05:52:42;;;;;;;6.13;1.60;;;;;;;11.70;100.00;99979.66;7390591;19;20425;-54
2022/09/15 05:55:15;;;;;;;7.33;1.60;;;;;;;11.66;100.00;99988.19;7394074;19;20440;-59
2022/09/15 05:57:44;;;;;;;6.03;2.07;;;;;;;11.64;100.00;99987.25;7391168;19;20731;-55
2022/09/15 06:00:15;;;;;;;10.03;2.00;;;;;;;11.61;100.00;99989.75;7395710;19;20722;-57
2022/09/15 06:02:44;;;;;;;4.80;1.60;;;;;;;11.63;100.00;99990.66;7391586;19;20416;-55
2022/09/15 06:05:14;;;;;;;5.10;2.20;;;;;;;11.65;100.00;99995.88;7393854;19;20430;-55
2022/09/15 06:07:43;;;;;;;5.20;2.13;;;;;;;11.66;100.00;100006.25;7388167;19;20437;-56
2022/09/15 06:10:16;;;;;;;8.33;1.70;;;;;;;11.73;100.00;100002.09;7395834;19;20384;-57
2022/09/15 06:12:45;;;;;;;10.13;2.13;;;;;;;11.80;100.00;100008.31;7390764;19;20407;-58
2022/09/15 06:15:14;;;;;;;8.37;2.10;;;;;;;11.83;100.00;100003.19;7393571;19;20417;-60
2022/09/15 06:17:44;;;;;;;8.33;2.77;;;;;;;11.82;100.00;100014.38;7390416;19;20434;-58
2022/09/15 06:20:13;;;;;;;7.33;2.30;;;;;;;11.92;100.00;100010.31;7394937;19;20410;-58
2022/09/15 06:22:43;;;;;;;9.43;2.10;;;;;;;12.00;100.00;100017.41;7390875;19;20442;-58
2022/09/15 06:25:12;;;;;;;11.30;1.63;;;;;;;11.96;100.00;100007.88;7390261;19;21112;-54
2022/09/15 06:27:45;;;;;;;4.70;1.80;;;;;;;12.00;100.00;100012.25;7386163;19;20416;-50
2022/09/15 06:30:16;;;;;;;7.70;1.93;;;;;;;12.02;100.00;100020.91;7395020;19;20385;-51
2022/09/15 06:32:45;;;;;;;7.13;1.80;;;;;;;12.09;100.00;100026.25;7391109;19;20409;-57
2022/09/15 06:35:16;;;;;;;13.40;3.43;;;;;;;12.08;100.00;100035.75;7393272;19;20440;-55
2022/09/15 06:37:46;;;;;;;4.57;1.77;;;;;;;12.12;100.00;100047.03;7389538;19;20420;-54
2022/09/15 06:40:16;;;;;;;7.90;2.40;;;;;;;12.09;100.00;100039.19;7394519;19;20398;-56
2022/09/15 06:42:48;;;;;;;13.60;2.30;;;;;;;12.20;100.00;100040.31;7390148;19;20422;-59
2022/09/15 06:45:18;;;;;;;8.40;2.03;;;;;;;12.18;100.00;100042.00;7392788;19;20770;-60
2022/09/15 06:47:47;;;;;;;6.27;1.43;;;;;;;12.21;100.00;100046.38;7388838;19;20412;-54
2022/09/15 06:50:35;;;;;;;9.53;2.00;;;;;;;12.25;100.00;100051.66;7394736;19;20391;-53
2022/09/15 06:53:05;;;;;;;8.53;1.67;;;;;;;12.24;100.00;100047.31;7390035;19;20468;-56
2022/09/15 06:55:34;;;;;;;12.00;1.90;;;;;;;12.29;100.00;100063.84;7396677;19;20435;-56
2022/09/15 06:58:06;;;;;;;7.83;1.70;;;;;;;12.34;100.00;100057.88;7389906;19;20418;-56
2022/09/15 07:00:35;;;;;;;10.07;3.40;;;;;;;12.31;100.00;100069.00;7394029;19;20380;-54
2022/09/15 07:03:05;;;;;;;7.23;1.57;;;;;;;12.40;100.00;100065.78;7388307;19;20442;-58
2022/09/15 07:05:34;;;;;;;6.80;2.60;;;;;;;12.46;100.00;100067.66;7391871;19;20452;-54
2022/09/15 07:08:04;;;;;;;10.30;1.87;;;;;;;12.52;100.00;100071.22;7388731;19;20422;-59
2022/09/15 07:10:34;;;;;;;9.87;2.33;;;;;;;12.59;100.00;100074.84;7394173;19;20394;-56
2022/09/15 07:13:06;;;;;;;10.63;1.80;;;;;;;12.62;100.00;100076.63;7389394;19;20416;-53
2022/09/15 07:15:35;;;;;;;9.97;1.70;;;;;;;12.73;100.00;100077.75;7391540;19;20425;-57
2022/09/15 07:18:05;;;;;;;8.73;1.40;;;;;;;12.75;100.00;100085.53;7390338;19;20445;-57
2022/09/15 07:20:34;;;;;;;10.90;1.27;;;;;;;12.86;100.00;100096.16;7393626;19;20387;-54
2022/09/15 07:23:03;;;;;;;3.90;1.40;;;;;;;12.94;100.00;100097.16;7388700;19;20857;-55
2022/09/15 07:25:33;;;;;;;11.80;2.47;;;;;;;13.05;100.00;100095.69;7391117;19;20421;-59
2022/09/15 07:28:03;;;;;;;5.00;1.80;;;;;;;13.07;100.00;100098.28;7388926;19;20413;-55
2022/09/15 07:30:35;;;;;;;4.67;1.47;;;;;;;13.00;100.00;100094.72;7398358;19;20402;-58
2022/09/15 07:33:04;;;;;;;7.33;1.87;;;;;;;12.90;100.00;100095.34;7388381;19;20444;-58
2022/09/15 07:35:34;;;;;;;6.60;1.80;;;;;;;12.95;100.00;100099.81;7390651;19;20418;-53
2022/09/15 07:38:03;;;;;;;9.20;1.90;;;;;;;12.97;100.00;100102.41;7388219;19;20423;-53
2022/09/15 07:40:33;;;;;;;6.27;1.33;;;;;;;13.01;100.00;100103.34;7391451;19;20387;-54
2022/09/15 07:43:03;;;;;;;9.63;1.43;;;;;;;13.04;100.00;100108.59;7388019;19;20419;-53
2022/09/15 07:45:37;;;;;;;5.70;1.20;;;;;;;13.04;100.00;100103.41;7390283;19;20436;-55
2022/09/15 07:48:06;;;;;;;13.90;3.23;;;;;;;13.18;100.00;100109.75;7387710;19;20429;-55
2022/09/15 07:50:36;;;;;;;12.93;4.70;;;;;;;13.24;100.00;100106.44;7392877;19;20393;-57
2022/09/15 07:53:05;;;;;;;5.23;1.60;;;;;;;13.36;100.00;100108.38;7387647;19;20437;-53
2022/09/15 07:55:35;;;;;;;9.53;1.87;;;;;;;13.45;100.00;100115.47;7387304;19;20455;-55
2022/09/15 07:58:04;;;;;;;10.63;4.17;;;;;;;13.42;100.00;100113.69;7389613;19;20434;-56
2022/09/15 08:00:38;;;;;;;22.03;11.00;;;;;;;13.32;100.00;100123.00;7394888;19;20394;-57
2022/09/15 08:03:07;;;;;;;20.90;5.43;;;;;;;13.54;100.00;100133.81;7385977;19;20429;-57
2022/09/15 08:05:37;;;;;;;13.30;4.57;;;;;;;13.57;100.00;100136.47;7393673;19;20423;-52
2022/09/15 08:08:11;;;;;;;10.50;3.20;;;;;;;13.75;100.00;100133.34;7387089;19;20419;-56
2022/09/15 08:10:42;;;;;;;13.30;4.40;;;;;;;13.61;100.00;100133.13;7392026;19;20914;-60
2022/09/15 08:13:12;;;;;;;9.93;3.10;;;;;;;13.69;100.00;100134.97;7389566;19;20439;-58
2022/09/15 08:15:44;;;;;;;32.43;15.23;;;;;;;13.83;100.00;100133.50;7389607;19;20441;-54
2022/09/15 08:18:13;;;;;;;19.97;5.53;;;;;;;13.91;100.00;100141.44;7387673;19;20897;-57
2022/09/15 08:20:43;;;;;;;19.83;9.60;;;;;;;14.03;100.00;100145.94;7391863;19;20913;-58
2022/09/15 08:23:13;;;;;;;16.60;4.87;;;;;;;14.11;100.00;100149.53;7384444;19;20407;-59
2022/09/15 08:25:42;;;;;;;13.03;2.90;;;;;;;14.12;100.00;100150.44;7388933;19;20500;-53
2022/09/15 08:28:12;;;;;;;26.07;11.60;;;;;;;14.18;100.00;100161.81;7387003;19;20412;-57
2022/09/15 08:30:44;;;;;;;31.50;14.07;;;;;;;14.13;100.00;100163.44;7394068;19;20422;-56
2022/09/15 08:33:13;;;;;;;25.53;12.30;;;;;;;14.29;100.00;100166.28;7386716;19;20969;-59
2022/09/15 08:35:42;;;;;;;10.60;2.53;;;;;;;14.44;100.00;100158.78;7389292;19;20430;-55
2022/09/15 08:38:12;;;;;;;31.03;13.40;;;;;;;14.47;100.00;100159.66;7385109;19;20958;-58
2022/09/15 08:40:46;;;;;;;6.63;1.70;;;;;;;14.60;100.00;100166.78;7391189;19;20383;-58
2022/09/15 08:43:19;;;;;;;28.90;9.77;;;;;;;14.48;100.00;100179.56;7384606;19;20418;-55
2022/09/15 08:45:54;;;;;;;4.87;1.63;;;;;;;14.72;100.00;100174.75;7390998;19;20755;-55
2022/09/15 08:48:29;;;;;;;26.60;11.20;;;;;;;14.79;100.00;100191.38;7383445;19;20431;-58
2022/09/15 08:50:59;;;;;;;23.30;9.43;;;;;;;14.92;100.00;100205.38;7398303;19;20368;-58
2022/09/15 08:53:33;;;;;;;14.47;5.80;;;;;;;14.95;100.00;100220.16;7392774;19;20429;-57
2022/09/15 08:56:06;;;;;;;9.40;2.60;;;;;;;15.10;100.00;100227.31;7398060;19;20721;-55
2022/09/15 08:58:39;;;;;;;6.37;1.63;;;;;;;15.12;100.00;100241.19;7400495;19;20960;-54
2022/09/15 09:01:20;;;;;;;27.17;12.20;;;;;;;14.98;100.00;100254.84;7394273;19;20383;-54
2022/09/15 09:04:01;;;;;;;10.33;1.67;;;;;;;15.06;100.00;100261.88;7397444;19;20425;-55
2022/09/15 09:06:36;;;;;;;20.70;6.63;;;;;;;15.21;100.00;100250.84;7393020;19;20993;-58
2022/09/15 09:09:21;;;;;;;9.87;2.43;;;;;;;15.42;100.00;100242.47;7397960;19;20395;-59
2022/09/15 09:12:14;;;;;;;15.00;3.90;;;;;;;15.52;100.00;100270.34;7393321;19;20411;-58
2022/09/15 09:14:53;;;;;;;13.33;2.40;;;;;;;15.37;100.00;100277.91;7394842;19;20862;-58
2022/09/15 09:17:36;;;;;;;11.83;3.27;;;;;;;15.27;100.00;100265.66;7392601;19;20442;-60
2022/09/15 09:20:28;;;;;;;13.70;1.60;;;;;;;14.98;100.00;100267.81;7397415;19;20408;-60
2022/09/15 09:22:59;;;;;;;12.30;1.20;;;;;;;14.73;100.00;100248.34;7391169;19;20806;-58
2022/09/15 09:25:28;;;;;;;25.80;10.27;;;;;;;14.70;100.00;100233.59;7398495;19;20538;-57
2022/09/15 09:27:59;;;;;;;60.83;29.40;;;;;;;14.75;100.00;100223.31;7391902;19;20772;-56
2022/09/15 09:30:31;;;;;;;15.40;5.50;;;;;;;14.75;100.00;100214.63;7396653;19;20419;-60
2022/09/15 09:33:17;;;;;;;18.87;7.47;;;;;;;14.82;100.00;100222.56;7392632;19;20460;-53
2022/09/15 09:35:47;;;;;;;12.40;4.40;;;;;;;14.82;100.00;100219.97;7394365;19;20436;-61
2022/09/15 09:38:21;;;;;;;10.50;2.30;;;;;;;14.63;100.00;100226.56;7390942;19;20436;-56
2022/09/15 09:40:51;;;;;;;20.23;7.63;;;;;;;14.45;100.00;100217.59;7396767;19;20387;-58
2022/09/15 09:43:21;;;;;;;6.80;1.47;;;;;;;14.04;100.00;100197.84;7389198;19;20459;-56
2022/09/15 09:45:51;;;;;;;13.43;4.10;;;;;;;14.04;100.00;100181.41;7396639;19;20414;-53
2022/09/15 09:48:26;;;;;;;25.87;11.87;;;;;;;13.88;100.00;100170.78;7391634;19;20747;-61
2022/09/15 09:50:55;;;;;;;32.93;15.30;;;;;;;13.84;100.00;100156.00;7396387;19;20412;-53
2022/09/15 09:53:30;;;;;;;23.77;10.90;;;;;;;13.85;100.00;100155.13;7390610;19;20416;-55
2022/09/15 09:56:16;;;;;;;5.30;1.87;;;;;;;14.00;100.00;100151.09;7395763;19;20909;-57
2022/09/15 09:58:46;;;;;;;11.43;5.27;;;;;;;14.21;100.00;100160.09;7394787;19;20754;-53
2022/09/15 10:01:17;;;;;;;13.13;6.70;;;;;;;14.47;100.00;100172.63;7391802;19;20384;-60
2022/09/15 10:03:49;;;;;;;15.07;5.20;;;;;;;14.63;100.00;100172.03;7393793;19;20566;-55
2022/09/15 10:06:21;;;;;;;9.70;2.17;;;;;;;14.74;100.00;100194.69;7391648;19;20382;-61
2022/09/15 10:08:58;;;;;;;9.87;5.10;;;;;;;14.72;100.00;100205.06;7395065;19;20384;-54
2022/09/15 10:11:41;;;;;;;16.77;6.23;;;;;;;14.83;100.00;100200.06;7391462;19;20416;-58
2022/09/15 10:14:21;;;;;;;12.47;3.80;;;;;;;15.14;100.00;100208.31;7394185;19;20418;-52
2022/09/15 10:17:01;;;;;;;14.83;4.00;;;;;;;15.47;100.00;100211.34;7390332;19;20741;-56
2022/09/15 10:19:36;;;;;;;7.53;1.10;;;;;;;15.57;100.00;100201.91;7395717;19;20414;-57
2022/09/15 10:22:06;;;;;;;38.00;14.63;;;;;;;15.61;100.00;100206.31;7390083;19;20434;-53
2022/09/15 10:24:36;;;;;;;7.17;2.57;;;;;;;15.34;100.00;100211.16;7394034;19;20412;-56
2022/09/15 10:27:17;;;;;;;17.43;6.70;;;;;;;15.36;100.00;100219.00;7390644;19;20438;-56
2022/09/15 10:29:47;;;;;;;12.63;5.30;;;;;;;15.59;100.00;100241.84;7395247;19;20838;-53
2022/09/15 10:32:26;;;;;;;11.33;3.80;;;;;;;15.77;100.00;100261.97;7390600;19;20415;-58
2022/09/15 10:35:11;;;;;;;13.20;4.03;;;;;;;15.86;100.00;100274.22;7393126;19;20404;-52
2022/09/15 10:37:53;;;;;;;9.03;2.40;;;;;;;16.03;100.00;100288.34;7390557;19;20411;-57
2022/09/15 10:40:35;;;;;;;7.47;1.70;;;;;;;16.11;100.00;100329.19;7394991;19;20411;-59
2022/09/15 10:43:15;;;;;;;9.67;3.40;;;;;;;16.32;100.00;100358.06;7389562;19;20506;-56
2022/09/15 10:45:49;;;;;;;9.00;2.53;;;;;;;16.37;100.00;100372.88;7392466;19;20419;-55
2022/09/15 10:48:33;;;;;;;10.23;2.40;;;;;;;16.35;100.00;100374.59;7388416;19;20423;-56
2022/09/15 10:51:14;;;;;;;6.27;1.43;;;;;;;16.54;100.00;100386.97;7394764;19;20431;-56
2022/09/15 10:54:11;;;;;;;9.33;3.20;;;;;;;16.39;100.00;100410.22;7392872;19;20464;-59
2022/09/15 10:56:42;;;;;;;11.47;2.70;;;;;;;16.64;100.00;100414.00;7389292;19;20936;-53
2022/09/15 10:59:35;;;;;;;6.90;1.37;;;;;;;16.51;100.00;100445.97;7395051;19;20486;-55
2022/09/15 11:02:25;;;;;;;3.40;0.67;;;;;;;16.65;100.00;100452.19;7388159;19;20414;-58
2022/09/15 11:05:06;;;;;;;11.23;2.43;;;;;;;16.57;100.00;100427.81;7395225;19;20437;-59
2022/09/15 11:07:46;;;;;;;5.97;0.80;;;;;;;16.56;100.00;100419.09;7389024;19;20418;-60
2022/09/15 11:10:21;;;;;;;10.07;2.70;;;;;;;16.16;100.00;100416.00;7393313;19;20418;-55
2022/09/15 11:13:00;;;;;;;5.10;0.97;;;;;;;15.84;100.00;100425.06;7383451;19;20441;-58
2022/09/15 11:15:38;;;;;;;12.77;3.40;;;;;;;15.32;100.00;100433.78;7391425;19;20400;-55
2022/09/15 11:18:39;;;;;;;11.53;3.00;;;;;;;14.17;100.00;100390.91;7387741;19;20419;-56
2022/09/15 11:21:26;;;;;;;12.93;2.20;;;;;;;13.28;100.00;100338.78;7387946;19;20410;-55
2022/09/15 11:24:09;;;;;;;9.83;3.37;;;;;;;12.95;100.00;100287.94;7391709;19;20449;-57
2022/09/15 11:26:41;;;;;;;7.53;1.80;;;;;;;12.83;100.00;100229.81;7388821;19;20399;-59
2022/09/15 11:29:15;;;;;;;33.73;14.17;;;;;;;13.01;100.00;100194.84;7393464;19;20393;-56
2022/09/15 11:31:46;;;;;;;6.90;1.30;;;;;;;13.43;100.00;100179.34;7385958;19;20416;-56
2022/09/15 11:34:20;;;;;;;5.27;1.90;;;;;;;13.74;100.00;100172.22;7396101;19;20929;-54
2022/09/15 11:36:52;;;;;;;4.80;1.20;;;;;;;13.79;100.00;100169.72;7380900;19;20400;-57
2022/09/15 11:39:27;;;;;;;6.63;1.47;;;;;;;13.92;100.00;100184.66;7393075;19;20412;-55
2022/09/15 11:42:00;;;;;;;9.57;1.40;;;;;;;14.10;100.00;100175.47;7383478;19;20812;-61
2022/09/15 11:44:31;;;;;;;13.33;5.40;;;;;;;14.22;100.00;100182.59;7390828;19;20419;-59
2022/09/15 11:47:20;;;;;;;6.83;1.77;;;;;;;14.43;100.00;100198.56;7377229;19;20440;-57
2022/09/15 11:49:52;;;;;;;6.47;2.27;;;;;;;14.62;100.00;100205.75;7392855;19;20952;-53